createdAt,value
2018-04-07T00:04:49.501Z,1007.49
2018-04-07T00:09:48.007Z,1007.37
2018-04-07T00:14:43.547Z,1007.39
2018-04-07T00:19:40.285Z,1007.30
2018-04-07T00:24:40.245Z,1007.29
2018-04-07T00:29:34.864Z,1007.29
2018-04-07T00:34:30.860Z,1007.19
2018-04-07T00:39:31.387Z,1007.13
2018-04-07T00:44:26.326Z,1007.19
2018-04-07T00:49:22.198Z,1007.19
2018-04-07T00:54:17.954Z,1007.27
2018-04-07T00:59:13.638Z,1007.51
2018-04-07T01:04:10.320Z,1007.56
2018-04-07T01:09:06.835Z,1007.59
2018-04-07T01:14:06.149Z,1007.50
2018-04-07T01:19:00.967Z,1007.48
2018-04-07T01:23:56.768Z,1007.47
2018-04-07T01:28:56.227Z,1007.47
2018-04-07T01:33:56.788Z,1007.43
2018-04-07T01:38:52.399Z,1007.30
2018-04-07T01:43:48.748Z,1007.25
2018-04-07T01:48:44.171Z,1007.28
2018-04-07T01:53:40.138Z,1007.24
2018-04-07T01:58:35.883Z,1007.22
2018-04-07T02:03:31.578Z,1007.11
2018-04-07T02:08:31.232Z,1007.13
2018-04-07T02:13:31.135Z,1007.15
2018-04-07T02:18:30.405Z,1007.18
2018-04-07T02:23:25.138Z,1007.12
2018-04-07T02:28:20.967Z,1007.04
2018-04-07T02:33:17.740Z,1006.92
2018-04-07T02:38:17.004Z,1006.85
2018-04-07T02:43:12.011Z,1006.91
2018-04-07T02:48:08.090Z,1006.86
2018-04-07T02:53:04.918Z,1006.81
2018-04-07T02:58:01.247Z,1006.76
2018-04-07T03:02:57.087Z,1006.72
2018-04-07T03:07:56.746Z,1006.74
2018-04-07T03:12:55.844Z,1006.72
2018-04-07T03:17:50.785Z,1006.65
2018-04-07T03:22:46.384Z,1006.43
2018-04-07T03:27:42.933Z,1006.43
2018-04-07T03:32:38.398Z,1006.46
2018-04-07T03:37:38.071Z,1006.50
2018-04-07T03:42:38.033Z,1006.48
2018-04-07T03:47:37.608Z,1006.41
2018-04-07T03:52:36.439Z,1006.44
2018-04-07T03:57:31.270Z,1006.45
2018-04-07T04:02:27.576Z,1006.44
2018-04-07T04:07:25.023Z,1006.43
2018-04-07T04:12:24.382Z,1006.54
2018-04-07T04:17:23.030Z,1006.50
2018-04-07T04:22:17.781Z,1006.46
2018-04-07T04:27:13.794Z,1006.48
2018-04-07T04:32:09.598Z,1006.39
2018-04-07T04:37:09.172Z,1006.32
2018-04-07T04:42:04.858Z,1006.31
2018-04-07T04:47:01.352Z,1006.33
2018-04-07T04:51:56.984Z,1006.29
2018-04-07T04:56:53.684Z,1006.21
2018-04-07T05:01:50.221Z,1006.19
2018-04-07T05:06:46.800Z,1006.17
2018-04-07T05:11:43.137Z,1006.12
2018-04-07T05:16:43.872Z,1006.11
2018-04-07T05:21:43.818Z,1006.09
2018-04-07T05:26:38.669Z,1006.15
2018-04-07T05:31:39.370Z,1006.07
2018-04-07T05:36:35.412Z,1006.12
2018-04-07T05:41:32.016Z,1005.94
2018-04-07T05:46:27.643Z,1005.96
2018-04-07T05:51:23.593Z,1006.03
2018-04-07T05:56:19.704Z,1005.96
2018-04-07T06:01:19.571Z,1006.03
2018-04-07T06:06:14.766Z,1005.96
2018-04-07T06:11:15.042Z,1005.94
2018-04-07T06:16:13.953Z,1005.99
2018-04-07T06:21:14.092Z,1006.03
2018-04-07T06:26:09.025Z,1006.00
2018-04-07T06:31:04.952Z,1006.05
2018-04-07T06:36:01.132Z,1005.98
2018-04-07T06:41:02.306Z,1006.05
2018-04-07T06:46:01.243Z,1005.98
2018-04-07T06:50:57.849Z,1005.87
2018-04-07T06:55:55.087Z,1005.89
2018-04-07T07:00:50.979Z,1005.85
2018-04-07T07:05:46.904Z,1005.90
2018-04-07T07:10:43.086Z,1005.77
2018-04-07T07:15:42.722Z,1005.90
2018-04-07T07:20:37.864Z,1005.93
2018-04-07T07:25:38.349Z,1005.89
2018-04-07T07:30:35.085Z,1005.96
2018-04-07T07:35:34.459Z,1005.92
2018-04-07T07:40:29.507Z,1005.88
2018-04-07T07:45:30.892Z,1005.82
2018-04-07T07:50:26.213Z,1005.86
2018-04-07T07:55:22.731Z,1005.81
2018-04-07T08:00:21.093Z,1005.78
2018-04-07T08:05:18.478Z,1005.87
2018-04-07T08:10:22.558Z,1005.73
2018-04-07T08:15:21.200Z,1005.77
2018-04-07T08:20:18.833Z,1005.85
2018-04-07T08:25:16.215Z,1005.72
2018-04-07T08:30:12.060Z,1005.77
2018-04-07T08:35:08.454Z,1005.85
2018-04-07T08:40:04.254Z,1005.95
2018-04-07T08:45:00.378Z,1005.74
2018-04-07T08:50:01.322Z,1005.74
2018-04-07T08:54:57.081Z,1005.71
2018-04-07T08:59:53.384Z,1005.72
2018-04-07T09:04:51.096Z,1005.62
2018-04-07T09:09:50.707Z,1005.57
2018-04-07T09:14:49.741Z,1005.72
2018-04-07T09:19:49.786Z,1005.65
2018-04-07T09:24:48.354Z,1005.73
2018-04-07T09:29:48.131Z,1006.07
2018-04-07T09:34:48.009Z,1005.91
2018-04-07T09:39:43.624Z,1005.59
2018-04-07T09:44:39.044Z,1005.98
2018-04-07T09:49:36.835Z,1005.53
2018-04-07T09:54:36.332Z,1005.57
2018-04-07T09:59:31.872Z,1005.41
2018-04-07T10:09:38.599Z,1005.49
2018-04-07T10:14:39.398Z,1005.78
2018-04-07T10:19:36.634Z,1005.78
2018-04-07T10:24:33.341Z,1006.18
2018-04-07T10:29:31.336Z,1005.91
2018-04-07T10:34:30.142Z,1005.76
2018-04-07T10:39:27.336Z,1005.36
2018-04-07T10:44:23.645Z,1005.27
2018-04-07T10:49:20.135Z,1005.03
2018-04-07T10:54:21.668Z,1005.01
2018-04-07T10:59:18.966Z,1004.80
2018-04-07T11:04:14.372Z,1004.80
2018-04-07T11:09:15.742Z,1004.90
2018-04-07T11:14:11.655Z,1004.76
2018-04-07T11:19:08.635Z,1004.72
2018-04-07T11:24:09.207Z,1004.68
2018-04-07T11:29:08.953Z,1004.68
2018-04-07T11:34:11.426Z,1004.63
2018-04-07T11:39:11.783Z,1004.62
2018-04-07T11:44:08.732Z,1004.61
2018-04-07T11:49:11.085Z,1004.45
2018-04-07T11:54:06.334Z,1004.44
2018-04-07T11:59:02.640Z,1004.37
2018-04-07T12:04:04.981Z,1004.41
2018-04-07T12:09:03.454Z,1004.42
2018-04-07T12:14:03.085Z,1004.35
2018-04-07T12:19:01.712Z,1004.26
2018-04-07T12:23:57.389Z,1004.20
2018-04-07T12:28:53.552Z,1004.13
2018-04-07T12:33:53.075Z,1004.05
2018-04-07T12:38:47.671Z,1003.97
2018-04-07T12:43:47.972Z,1003.87
2018-04-07T12:48:46.645Z,1003.80
2018-04-07T12:53:48.726Z,1003.79
2018-04-07T12:58:48.288Z,1003.77
2018-04-07T13:03:42.505Z,1003.66
2018-04-07T13:08:41.876Z,1003.55
2018-04-07T13:13:41.625Z,1003.59
2018-04-07T13:18:36.540Z,1003.51
2018-04-07T13:23:33.803Z,1003.45
2018-04-07T13:28:30.827Z,1003.35
2018-04-07T13:33:38.525Z,1003.23
2018-04-07T13:38:31.204Z,1003.09
2018-04-07T13:43:26.719Z,1003.09
2018-04-07T13:48:22.669Z,1002.95
2018-04-07T13:53:18.238Z,1002.94
2018-04-07T13:58:14.005Z,1002.91
2018-04-07T14:03:14.771Z,1002.86
2018-04-07T14:08:14.342Z,1002.82
2018-04-07T14:13:10.588Z,1002.74
2018-04-07T14:18:10.821Z,1002.56
2018-04-07T14:23:06.006Z,1002.57
2018-04-07T14:28:07.101Z,1002.43
2018-04-07T14:33:02.596Z,1002.47
2018-04-07T14:38:02.757Z,1002.35
2018-04-07T14:43:03.108Z,1002.27
2018-04-07T14:48:04.029Z,1002.24
2018-04-07T14:53:02.943Z,1002.19
2018-04-07T14:57:57.949Z,1002.07
2018-04-07T15:02:55.194Z,1002.18
2018-04-07T15:07:50.670Z,1002.11
2018-04-07T15:12:51.461Z,1002.05
2018-04-07T15:17:51.494Z,1002.01
2018-04-07T15:22:50.490Z,1002.10
2018-04-07T15:32:49.291Z,1002.04
2018-04-07T15:37:48.800Z,1002.14
2018-04-07T15:42:48.652Z,1002.08
2018-04-07T15:47:43.625Z,1002.09
2018-04-07T15:52:39.708Z,1002.12
2018-04-07T15:57:35.765Z,1002.12
2018-04-07T16:02:32.012Z,1002.03
2018-04-07T16:07:29.126Z,1002.03
2018-04-07T16:12:25.098Z,1002.06
2018-04-07T16:17:20.943Z,1001.98
2018-04-07T16:22:21.961Z,1002.14
2018-04-07T16:27:16.719Z,1002.12
2018-04-07T16:32:13.284Z,1002.06
2018-04-07T16:37:09.228Z,1002.09
2018-04-07T16:42:06.133Z,1002.04
2018-04-07T16:47:06.690Z,1002.06
2018-04-07T16:52:01.394Z,1002.00
2018-04-07T16:57:03.283Z,1001.97
2018-04-07T17:02:02.887Z,1002.09
2018-04-07T17:07:03.571Z,1002.09
2018-04-07T17:11:59.501Z,1002.11
2018-04-07T17:16:55.124Z,1002.20
2018-04-07T17:21:51.002Z,1002.21
2018-04-07T17:26:49.089Z,1002.23
2018-04-07T17:31:49.841Z,1002.11
2018-04-07T17:36:44.620Z,1002.06
2018-04-07T17:41:41.449Z,1002.07
2018-04-07T17:46:37.992Z,1002.06
2018-04-07T17:51:34.613Z,1002.12
2018-04-07T17:56:30.192Z,1002.09
2018-04-07T18:01:29.926Z,1002.12
2018-04-07T18:06:26.424Z,1002.05
2018-04-07T18:11:27.350Z,1002.11
2018-04-07T18:16:26.853Z,1002.11
2018-04-07T18:21:26.271Z,1002.13
2018-04-07T18:26:24.861Z,1002.24
2018-04-07T18:31:20.026Z,1002.30
2018-04-07T18:36:19.564Z,1002.39
2018-04-07T18:41:14.929Z,1002.45
2018-04-07T18:46:14.617Z,1002.50
2018-04-07T18:51:13.535Z,1002.43
2018-04-07T18:56:13.386Z,1002.44
2018-04-07T19:01:07.992Z,1002.52
2018-04-07T19:06:03.739Z,1002.68
2018-04-07T19:11:03.364Z,1002.80
2018-04-07T19:16:03.541Z,1002.79
2018-04-07T19:20:58.552Z,1002.79
2018-04-07T19:25:55.072Z,1002.87
2018-04-07T19:30:50.333Z,1002.87
2018-04-07T19:35:47.051Z,1002.91
2018-04-07T19:40:42.637Z,1002.98
2018-04-07T19:45:43.782Z,1002.95
2018-04-07T19:50:38.736Z,1003.00
2018-04-07T19:55:34.738Z,1003.12
2018-04-07T20:00:34.273Z,1003.16
2018-04-07T20:05:33.136Z,1003.16
2018-04-07T20:10:28.822Z,1003.18
2018-04-07T20:15:25.099Z,1003.12
2018-04-07T20:20:22.679Z,1002.99
2018-04-07T20:25:18.168Z,1003.09
2018-04-07T20:30:13.942Z,1002.95
2018-04-07T20:35:10.557Z,1003.11
2018-04-07T20:40:06.127Z,1003.07
2018-04-07T20:45:02.749Z,1003.07
2018-04-07T20:50:02.243Z,1003.10
2018-04-07T20:54:58.122Z,1003.15
2018-04-07T20:59:58.011Z,1003.05
2018-04-07T21:04:57.353Z,1003.13
2018-04-07T21:09:53.262Z,1003.03
2018-04-07T21:14:49.914Z,1003.09
2018-04-07T21:19:46.376Z,1003.07
2018-04-07T21:24:42.049Z,1003.03
2018-04-07T21:29:38.325Z,1003.00
2018-04-07T21:34:38.067Z,1002.97
2018-04-07T21:39:34.195Z,1003.04
2018-04-07T21:44:29.356Z,1003.01
2018-04-07T21:49:28.916Z,1002.94
2018-04-07T21:54:27.883Z,1002.93
2018-04-07T21:59:22.801Z,1002.89
2018-04-07T22:04:23.220Z,1003.01
2018-04-07T22:09:22.029Z,1002.93
2018-04-07T22:14:18.673Z,1002.89
2018-04-07T22:19:15.025Z,1002.99
2018-04-07T22:24:10.634Z,1002.80
2018-04-07T22:29:06.535Z,1002.86
2018-04-07T22:34:02.691Z,1002.81
2018-04-07T22:38:58.560Z,1002.72
2018-04-07T22:43:55.069Z,1002.63
2018-04-07T22:48:51.944Z,1002.69
2018-04-07T22:53:51.349Z,1002.65
2018-04-07T22:58:50.342Z,1002.67
2018-04-07T23:03:49.464Z,1002.69
2018-04-07T23:08:48.328Z,1002.70
2018-04-07T23:13:44.268Z,1002.67
2018-04-07T23:18:40.875Z,1002.72
2018-04-07T23:23:37.234Z,1002.74
2018-04-07T23:28:32.686Z,1002.70
2018-04-07T23:33:32.953Z,1002.78
2018-04-07T23:38:28.849Z,1002.72
2018-04-07T23:43:25.353Z,1002.66
2018-04-07T23:48:25.674Z,1002.61
2018-04-07T23:53:20.427Z,1002.56
2018-04-07T23:58:16.215Z,1002.64
